createdAt,value
2022-10-01T00:01:17.974Z,5.47
2022-10-01T00:03:45.295Z,5.50
2022-10-01T00:06:15.185Z,7.30
2022-10-01T00:08:42.676Z,6.33
2022-10-01T00:11:12.414Z,7.17
2022-10-01T00:13:40.456Z,8.07
2022-10-01T00:16:10.156Z,6.73
2022-10-01T00:18:41.619Z,5.87
2022-10-01T00:21:10.918Z,8.37
2022-10-01T00:23:38.467Z,7.27
2022-10-01T00:26:17.229Z,7.70
2022-10-01T00:28:46.150Z,7.47
2022-10-01T00:31:14.756Z,10.40
2022-10-01T00:33:42.607Z,5.87
2022-10-01T00:36:10.518Z,8.77
2022-10-01T00:38:42.708Z,8.60
2022-10-01T00:41:10.256Z,9.73
2022-10-01T00:43:42.428Z,5.17
2022-10-01T00:46:34.561Z,7.97
2022-10-01T00:49:24.276Z,7.97
2022-10-01T00:51:55.798Z,8.10
2022-10-01T00:54:31.222Z,7.47
2022-10-01T00:56:59.531Z,6.67
2022-10-01T00:59:27.986Z,12.57
2022-10-01T01:01:54.954Z,6.60
2022-10-01T01:04:24.486Z,8.97
2022-10-01T01:06:59.007Z,7.73
2022-10-01T01:09:35.825Z,9.80
2022-10-01T01:12:24.744Z,6.53
2022-10-01T01:15:07.310Z,11.73
2022-10-01T01:17:39.565Z,10.53
2022-10-01T01:20:16.312Z,8.73
2022-10-01T01:22:51.915Z,7.10
2022-10-01T01:25:20.319Z,14.27
2022-10-01T01:28:14.824Z,11.43
2022-10-01T01:30:42.746Z,12.53
2022-10-01T01:33:17.664Z,9.87
2022-10-01T01:36:10.040Z,8.37
2022-10-01T01:38:42.983Z,8.43
2022-10-01T01:41:12.538Z,12.63
2022-10-01T01:43:44.515Z,8.63
2022-10-01T01:46:17.480Z,10.00
2022-10-01T01:48:49.143Z,8.63
2022-10-01T01:51:28.034Z,6.43
2022-10-01T01:53:54.895Z,11.93
2022-10-01T01:56:21.675Z,12.40
2022-10-01T01:58:49.188Z,9.07
2022-10-01T02:01:37.877Z,5.97
2022-10-01T02:04:36.397Z,8.63
2022-10-01T02:07:30.823Z,6.90
2022-10-01T02:10:03.089Z,9.83
2022-10-01T02:12:49.996Z,7.57
2022-10-01T02:15:28.637Z,10.47
2022-10-01T02:18:03.124Z,9.63
2022-10-01T02:20:36.150Z,10.07
2022-10-01T02:23:10.074Z,10.77
2022-10-01T02:25:45.746Z,12.40
2022-10-01T02:28:22.657Z,11.70
2022-10-01T02:30:51.473Z,9.63
2022-10-01T02:33:23.566Z,8.73
2022-10-01T02:35:52.934Z,12.07
2022-10-01T02:38:22.652Z,11.37
2022-10-01T02:40:53.357Z,8.07
2022-10-01T02:43:32.582Z,9.53
2022-10-01T02:46:07.550Z,10.10
2022-10-01T02:48:35.982Z,11.27
2022-10-01T02:51:15.857Z,10.73
2022-10-01T02:53:47.350Z,8.73
2022-10-01T02:56:34.815Z,7.93
2022-10-01T02:59:01.651Z,12.47
2022-10-01T03:01:28.789Z,11.90
2022-10-01T03:03:55.543Z,7.47
2022-10-01T03:06:22.454Z,10.60
2022-10-01T03:08:49.341Z,9.43
2022-10-01T03:11:16.167Z,9.00
2022-10-01T03:13:43.793Z,9.20
2022-10-01T03:16:10.579Z,9.60
2022-10-01T03:18:37.448Z,6.80
2022-10-01T03:21:04.348Z,9.93
2022-10-01T03:23:31.142Z,7.73
2022-10-01T03:25:57.864Z,9.33
2022-10-01T03:28:24.642Z,12.93
2022-10-01T03:30:51.408Z,9.17
2022-10-01T03:33:18.199Z,10.63
2022-10-01T03:35:44.918Z,9.47
2022-10-01T03:38:13.752Z,12.77
2022-10-01T03:40:40.532Z,10.70
2022-10-01T03:43:07.399Z,12.03
2022-10-01T03:45:34.183Z,10.83
2022-10-01T03:48:02.337Z,11.50
2022-10-01T03:50:29.122Z,9.47
2022-10-01T03:52:55.904Z,10.50
2022-10-01T03:55:22.663Z,9.63
2022-10-01T03:57:51.224Z,11.50
2022-10-01T04:00:19.413Z,13.03
2022-10-01T04:02:46.272Z,9.27
2022-10-01T04:05:13.104Z,11.27
2022-10-01T04:07:42.163Z,5.00
2022-10-01T04:10:09.461Z,9.40
2022-10-01T04:12:36.605Z,12.00
2022-10-01T04:15:03.464Z,11.03
2022-10-01T04:17:30.194Z,9.67
2022-10-01T04:19:57.764Z,12.77
2022-10-01T04:22:25.701Z,12.13
2022-10-01T04:24:53.786Z,9.90
2022-10-01T04:27:20.641Z,14.90
2022-10-01T04:29:47.649Z,9.10
2022-10-01T04:32:16.105Z,9.90
2022-10-01T04:34:56.140Z,10.73
2022-10-01T04:37:23.433Z,10.17
2022-10-01T04:39:50.711Z,12.83
2022-10-01T04:42:17.831Z,10.80
2022-10-01T04:44:44.757Z,12.47
2022-10-01T04:47:11.479Z,11.73
2022-10-01T04:49:38.828Z,10.37
2022-10-01T04:52:05.823Z,16.30
2022-10-01T04:54:32.627Z,11.30
2022-10-01T04:56:59.334Z,13.20
2022-10-01T04:59:26.484Z,12.07
2022-10-01T05:01:53.360Z,12.70
2022-10-01T05:04:20.112Z,7.47
2022-10-01T05:06:48.202Z,16.07
2022-10-01T05:09:16.982Z,14.10
2022-10-01T05:11:43.775Z,11.53
2022-10-01T05:14:11.775Z,10.77
2022-10-01T05:16:38.525Z,14.80
2022-10-01T05:19:05.387Z,11.67
2022-10-01T05:21:32.450Z,10.20
2022-10-01T05:23:59.476Z,12.13
2022-10-01T05:26:28.243Z,12.20
2022-10-01T05:28:55.222Z,11.77
2022-10-01T05:31:22.009Z,16.70
2022-10-01T05:33:50.102Z,16.10
2022-10-01T05:36:16.822Z,12.53
2022-10-01T05:38:43.595Z,16.33
2022-10-01T05:41:10.683Z,12.40
2022-10-01T05:43:37.375Z,14.30
2022-10-01T05:46:05.553Z,10.93
2022-10-01T05:48:36.780Z,12.77
2022-10-01T05:51:08.031Z,19.13
2022-10-01T05:53:39.049Z,13.60
2022-10-01T05:56:07.397Z,15.30
2022-10-01T05:58:34.752Z,20.50
2022-10-01T06:01:01.612Z,11.10
2022-10-01T06:03:29.022Z,12.90
2022-10-01T06:05:56.170Z,14.80
2022-10-01T06:08:23.401Z,14.83
2022-10-01T06:10:50.645Z,14.97
2022-10-01T06:13:20.203Z,13.13
2022-10-01T06:15:47.174Z,13.57
2022-10-01T06:18:14.705Z,14.67
2022-10-01T06:20:41.924Z,16.23
2022-10-01T06:23:12.350Z,14.77
2022-10-01T06:25:41.812Z,11.83
2022-10-01T06:28:11.128Z,13.23
2022-10-01T06:30:42.108Z,13.10
2022-10-01T06:33:14.463Z,12.90
2022-10-01T06:35:49.667Z,15.13
2022-10-01T06:38:19.810Z,18.07
2022-10-01T06:40:58.202Z,14.43
2022-10-01T06:43:26.816Z,14.43
2022-10-01T06:45:53.840Z,13.73
2022-10-01T06:48:21.235Z,12.70
2022-10-01T06:50:49.764Z,11.87
2022-10-01T06:53:18.526Z,14.13
2022-10-01T06:55:46.350Z,13.97
2022-10-01T06:58:18.626Z,12.60
2022-10-01T07:00:45.861Z,12.87
2022-10-01T07:03:15.981Z,12.00
2022-10-01T07:05:43.208Z,10.53
2022-10-01T07:08:11.430Z,11.30
2022-10-01T07:10:38.390Z,10.73
2022-10-01T07:13:09.704Z,10.63
2022-10-01T07:15:37.156Z,9.77
2022-10-01T07:18:05.150Z,13.20
2022-10-01T07:20:35.559Z,18.13
2022-10-01T07:23:02.403Z,8.73
2022-10-01T07:25:29.521Z,9.23
2022-10-01T07:27:57.927Z,13.30
2022-10-01T07:30:26.006Z,11.87
2022-10-01T07:32:56.641Z,10.70
2022-10-01T07:35:23.575Z,12.80
2022-10-01T07:37:51.496Z,13.10
2022-10-01T07:40:18.958Z,13.70
2022-10-01T07:42:56.492Z,11.47
2022-10-01T07:45:24.793Z,10.07
2022-10-01T07:47:56.956Z,12.40
2022-10-01T07:50:24.596Z,11.07
2022-10-01T07:52:56.255Z,12.33
2022-10-01T07:55:26.428Z,11.90
2022-10-01T07:58:02.482Z,12.27
2022-10-01T08:00:31.433Z,10.30
2022-10-01T08:02:58.361Z,13.43
2022-10-01T08:05:46.507Z,16.67
2022-10-01T08:08:13.263Z,13.73
2022-10-01T08:10:41.360Z,11.13
2022-10-01T08:13:16.250Z,11.27
2022-10-01T08:15:46.341Z,11.83
2022-10-01T08:18:13.858Z,18.07
2022-10-01T08:20:40.746Z,10.70
2022-10-01T08:23:10.565Z,13.00
2022-10-01T08:25:41.048Z,10.97
2022-10-01T08:28:09.242Z,10.30
2022-10-01T08:30:40.843Z,11.50
2022-10-01T08:33:23.694Z,11.13
2022-10-01T08:35:54.491Z,9.10
2022-10-01T08:38:21.723Z,9.47
2022-10-01T08:40:52.599Z,11.20
2022-10-01T08:43:31.382Z,7.07
2022-10-01T08:46:04.778Z,7.30
2022-10-01T08:49:04.422Z,15.10
2022-10-01T08:51:36.232Z,12.33
2022-10-01T08:54:15.117Z,11.07
2022-10-01T08:56:46.274Z,11.70
2022-10-01T08:59:41.138Z,11.77
2022-10-01T09:02:31.607Z,11.50
2022-10-01T09:05:02.714Z,12.47
2022-10-01T09:07:48.442Z,9.87
2022-10-01T09:10:34.098Z,10.00
2022-10-01T09:13:50.559Z,9.50
2022-10-01T09:16:33.128Z,10.30
2022-10-01T09:19:25.265Z,9.47
2022-10-01T09:22:03.559Z,10.97
2022-10-01T09:24:57.354Z,10.53
2022-10-01T09:27:27.556Z,8.50
2022-10-01T09:30:14.462Z,7.70
2022-10-01T09:32:48.238Z,9.67
2022-10-01T09:35:44.420Z,8.50
2022-10-01T09:38:21.923Z,8.93
2022-10-01T09:40:56.826Z,8.93
2022-10-01T09:43:28.513Z,11.03
2022-10-01T09:45:55.787Z,10.27
2022-10-01T09:48:57.968Z,8.77
2022-10-01T09:51:48.998Z,11.73
2022-10-01T09:54:39.830Z,10.73
2022-10-01T09:57:12.565Z,11.60
2022-10-01T09:59:54.470Z,9.43
2022-10-01T10:02:38.978Z,10.10
2022-10-01T10:05:09.133Z,11.97
2022-10-01T10:07:39.753Z,11.23
2022-10-01T10:10:25.593Z,8.80
2022-10-01T10:13:01.676Z,10.50
2022-10-01T10:15:31.355Z,8.23
2022-10-01T10:18:07.940Z,9.23
2022-10-01T10:20:40.580Z,10.57
2022-10-01T10:23:18.391Z,12.97
2022-10-01T10:26:15.410Z,7.93
2022-10-01T10:28:46.739Z,11.57
2022-10-01T10:31:22.630Z,8.17
2022-10-01T10:33:57.838Z,8.60
2022-10-01T10:36:30.526Z,7.60
2022-10-01T10:38:59.178Z,8.50
2022-10-01T10:41:28.571Z,5.87
2022-10-01T10:44:04.382Z,8.73
2022-10-01T10:46:34.965Z,10.57
2022-10-01T10:49:10.503Z,8.40
2022-10-01T10:52:06.721Z,8.13
2022-10-01T10:54:38.226Z,10.60
2022-10-01T10:57:30.172Z,7.70
2022-10-01T11:00:17.647Z,7.17
2022-10-01T11:02:58.889Z,8.10
2022-10-01T11:05:30.052Z,7.30
2022-10-01T11:08:00.595Z,7.97
2022-10-01T11:10:45.457Z,7.30
2022-10-01T11:13:38.317Z,5.07
2022-10-01T11:16:26.985Z,8.23
2022-10-01T11:19:02.832Z,8.70
2022-10-01T11:21:54.199Z,5.47
2022-10-01T11:24:39.899Z,9.10
2022-10-01T11:27:24.266Z,8.83
2022-10-01T11:30:12.804Z,9.53
2022-10-01T11:32:49.695Z,5.30
2022-10-01T11:35:46.916Z,9.37
2022-10-01T11:38:45.730Z,8.57
2022-10-01T11:41:25.843Z,10.50
2022-10-01T11:43:54.276Z,5.57
2022-10-01T11:46:29.848Z,7.60
2022-10-01T11:49:09.992Z,9.37
2022-10-01T11:51:43.958Z,8.43
2022-10-01T11:54:15.704Z,8.83
2022-10-01T11:57:11.405Z,8.77
2022-10-01T11:59:41.890Z,8.10
2022-10-01T12:02:16.401Z,6.70
2022-10-01T12:05:03.208Z,7.93
2022-10-01T12:07:48.867Z,8.23
2022-10-01T12:10:46.948Z,6.00
2022-10-01T12:13:22.441Z,7.87
2022-10-01T12:15:55.043Z,7.90
2022-10-01T12:18:42.450Z,6.60
2022-10-01T12:21:19.629Z,8.70
2022-10-01T12:23:54.886Z,7.07
2022-10-01T12:26:29.775Z,5.07
2022-10-01T12:29:15.051Z,6.97
2022-10-01T12:31:58.302Z,7.53
2022-10-01T12:34:42.599Z,8.10
2022-10-01T12:37:35.432Z,5.37
2022-10-01T12:40:22.929Z,4.87
2022-10-01T12:42:59.888Z,5.10
2022-10-01T12:45:37.895Z,7.27
2022-10-01T12:48:32.435Z,7.30
2022-10-01T12:51:29.816Z,6.73
2022-10-01T12:54:05.311Z,5.93
2022-10-01T12:56:43.227Z,6.47
2022-10-01T12:59:46.710Z,9.00
2022-10-01T13:02:31.279Z,7.97
2022-10-01T13:05:31.340Z,5.73
2022-10-01T13:08:16.757Z,7.60
2022-10-01T13:10:46.924Z,5.03
2022-10-01T13:13:23.068Z,8.57
2022-10-01T13:16:07.049Z,10.63
2022-10-01T13:18:40.410Z,5.13
2022-10-01T13:21:34.735Z,8.10
2022-10-01T13:24:11.092Z,5.93
2022-10-01T13:26:38.771Z,5.00
2022-10-01T13:29:31.213Z,7.67
2022-10-01T13:32:00.819Z,9.73
2022-10-01T13:34:40.887Z,12.47
2022-10-01T13:37:13.824Z,8.17
2022-10-01T13:39:43.643Z,5.03
2022-10-01T13:42:23.175Z,3.47
2022-10-01T13:45:21.743Z,6.07
2022-10-01T13:47:48.703Z,6.20
2022-10-01T13:50:23.898Z,8.73
2022-10-01T13:52:52.713Z,4.83
2022-10-01T13:55:30.285Z,4.17
2022-10-01T13:58:20.527Z,4.80
2022-10-01T14:00:55.290Z,7.47
2022-10-01T14:03:34.428Z,6.77
2022-10-01T14:06:04.224Z,6.60
2022-10-01T14:08:38.061Z,6.90
2022-10-01T14:11:45.348Z,4.53
2022-10-01T14:14:52.997Z,6.83
2022-10-01T14:17:23.160Z,8.03
2022-10-01T14:19:51.145Z,4.60
2022-10-01T14:22:24.285Z,5.00
2022-10-01T14:25:15.353Z,4.27
2022-10-01T14:27:59.983Z,7.23
2022-10-01T14:31:06.024Z,5.77
2022-10-01T14:33:41.478Z,7.40
2022-10-01T14:36:16.690Z,6.63
2022-10-01T14:38:43.712Z,7.70
2022-10-01T14:41:23.765Z,4.40
2022-10-01T14:43:50.553Z,7.50
2022-10-01T14:46:18.671Z,8.03
2022-10-01T14:48:56.169Z,7.90
2022-10-01T14:51:29.375Z,8.03
2022-10-01T14:53:59.562Z,8.43
2022-10-01T14:56:28.099Z,5.87
2022-10-01T14:59:01.847Z,7.47
2022-10-01T15:01:28.915Z,7.63
2022-10-01T15:03:55.912Z,9.13
2022-10-01T15:06:26.179Z,10.27
2022-10-01T15:08:54.968Z,7.37
2022-10-01T15:11:23.139Z,6.67
2022-10-01T15:13:56.804Z,8.20
2022-10-01T15:16:27.017Z,7.57
2022-10-01T15:18:59.525Z,7.57
2022-10-01T15:21:36.056Z,7.03
2022-10-01T15:24:04.894Z,12.43
2022-10-01T15:26:35.086Z,5.00
2022-10-01T15:29:12.475Z,9.50
2022-10-01T15:31:40.164Z,7.63
2022-10-01T15:34:11.408Z,8.03
2022-10-01T15:36:39.493Z,6.47
2022-10-01T15:39:25.319Z,6.47
2022-10-01T15:41:53.477Z,6.90
2022-10-01T15:44:41.198Z,6.83
2022-10-01T15:47:20.107Z,9.10
2022-10-01T15:50:05.942Z,7.07
2022-10-01T15:52:53.245Z,5.40
2022-10-01T15:55:43.030Z,6.97
2022-10-01T15:58:27.118Z,7.67
2022-10-01T16:01:05.403Z,7.50
2022-10-01T16:03:56.042Z,5.97
2022-10-01T16:06:23.837Z,5.27
2022-10-01T16:09:03.202Z,6.97
2022-10-01T16:11:33.547Z,6.50
2022-10-01T16:14:34.076Z,6.60
2022-10-01T16:17:19.169Z,5.43
2022-10-01T16:19:48.262Z,5.93
2022-10-01T16:22:20.797Z,5.43
2022-10-01T16:24:50.215Z,8.20
2022-10-01T16:27:23.363Z,6.00
2022-10-01T16:29:59.115Z,7.13
2022-10-01T16:32:29.659Z,7.13
2022-10-01T16:35:22.093Z,7.43
2022-10-01T16:37:51.363Z,8.43
2022-10-01T16:40:20.708Z,4.77
2022-10-01T16:42:49.359Z,5.00
2022-10-01T16:45:19.172Z,8.50
2022-10-01T16:47:46.739Z,7.70
2022-10-01T16:50:15.669Z,7.60
2022-10-01T16:52:42.533Z,5.37
2022-10-01T16:55:23.382Z,5.93
2022-10-01T16:57:51.364Z,6.10
2022-10-01T17:00:19.970Z,4.37
2022-10-01T17:02:47.323Z,6.27
2022-10-01T17:05:35.768Z,8.53
2022-10-01T17:08:04.987Z,7.37
2022-10-01T17:10:36.680Z,7.13
2022-10-01T17:13:03.788Z,8.07
2022-10-01T17:15:31.247Z,6.53
2022-10-01T17:17:59.392Z,5.77
2022-10-01T17:20:28.667Z,8.07
2022-10-01T17:22:59.094Z,6.93
2022-10-01T17:25:32.351Z,9.87
2022-10-01T17:28:01.239Z,10.70
2022-10-01T17:30:29.290Z,6.40
2022-10-01T17:32:57.097Z,9.10
2022-10-01T17:35:23.878Z,7.07
2022-10-01T17:37:50.637Z,8.93
2022-10-01T17:40:17.536Z,10.17
2022-10-01T17:42:44.455Z,4.37
2022-10-01T17:45:13.402Z,7.23
2022-10-01T17:47:47.524Z,6.47
2022-10-01T17:50:15.427Z,8.20
2022-10-01T17:52:42.478Z,7.30
2022-10-01T17:55:12.117Z,6.97
2022-10-01T17:57:38.979Z,7.07
2022-10-01T18:00:06.597Z,7.90
2022-10-01T18:02:42.582Z,8.67
2022-10-01T18:05:12.620Z,11.00
2022-10-01T18:07:40.417Z,9.50
2022-10-01T18:10:09.764Z,10.60
2022-10-01T18:12:36.607Z,16.27
2022-10-01T18:15:03.979Z,8.27
2022-10-01T18:17:33.288Z,10.30
2022-10-01T18:20:00.330Z,6.80
2022-10-01T18:22:28.479Z,11.87
2022-10-01T18:24:55.249Z,11.77
2022-10-01T18:27:22.036Z,9.30
2022-10-01T18:29:48.877Z,10.63
2022-10-01T18:32:22.452Z,9.77
2022-10-01T18:35:00.595Z,12.67
2022-10-01T18:37:30.096Z,13.87
2022-10-01T18:40:27.251Z,10.20
2022-10-01T18:43:04.523Z,14.30
2022-10-01T18:45:49.654Z,13.73
2022-10-01T18:48:40.756Z,10.87
2022-10-01T18:51:19.229Z,11.33
2022-10-01T18:54:06.746Z,9.17
2022-10-01T18:56:40.489Z,10.37
2022-10-01T18:59:38.752Z,11.53
2022-10-01T19:02:19.473Z,8.53
2022-10-01T19:05:23.258Z,10.30
2022-10-01T19:08:14.137Z,9.23
2022-10-01T19:10:54.107Z,10.30
2022-10-01T19:13:45.548Z,10.53
2022-10-01T19:16:15.477Z,14.67
2022-10-01T19:19:07.207Z,10.60
2022-10-01T19:21:54.330Z,13.37
2022-10-01T19:24:48.702Z,14.13
2022-10-01T19:27:55.250Z,11.33
2022-10-01T19:30:22.151Z,13.87
2022-10-01T19:33:10.083Z,16.23
2022-10-01T19:35:44.828Z,14.03
2022-10-01T19:38:11.804Z,16.57
2022-10-01T19:40:40.048Z,14.67
2022-10-01T19:43:21.721Z,14.93
2022-10-01T19:46:21.436Z,14.17
2022-10-01T19:49:01.751Z,15.40
2022-10-01T19:52:00.335Z,13.43
2022-10-01T19:54:33.397Z,15.20
2022-10-01T19:57:13.358Z,12.07
2022-10-01T19:59:41.526Z,14.90
2022-10-01T20:02:35.323Z,14.60
2022-10-01T20:05:12.609Z,13.80
2022-10-01T20:08:06.279Z,18.73
2022-10-01T20:10:43.885Z,17.37
2022-10-01T20:13:19.362Z,17.27
2022-10-01T20:15:49.980Z,12.13
2022-10-01T20:18:39.700Z,13.70
2022-10-01T20:21:20.554Z,12.57
2022-10-01T20:23:57.218Z,12.27
2022-10-01T20:26:27.677Z,12.13
2022-10-01T20:29:25.516Z,14.60
2022-10-01T20:32:00.004Z,13.23
2022-10-01T20:35:12.011Z,10.93
2022-10-01T20:37:58.849Z,10.00
2022-10-01T20:40:34.319Z,12.20
2022-10-01T20:43:31.338Z,15.53
2022-10-01T20:46:02.707Z,16.30
2022-10-01T20:48:36.935Z,14.33
2022-10-01T20:51:09.802Z,12.00
2022-10-01T20:53:55.372Z,16.13
2022-10-01T20:56:30.469Z,12.97
2022-10-01T20:59:10.832Z,9.40
2022-10-01T21:01:42.550Z,19.20
2022-10-01T21:04:22.914Z,14.30
2022-10-01T21:06:55.030Z,13.40
2022-10-01T21:09:26.906Z,15.80
2022-10-01T21:12:15.091Z,13.93
2022-10-01T21:14:54.824Z,14.77
2022-10-01T21:18:02.119Z,12.47
2022-10-01T21:20:43.894Z,14.17
2022-10-01T21:23:31.214Z,14.83
2022-10-01T21:26:25.611Z,10.00
2022-10-01T21:29:12.593Z,15.57
2022-10-01T21:31:54.780Z,11.87
2022-10-01T21:34:21.465Z,15.63
2022-10-01T21:37:24.840Z,13.80
2022-10-01T21:40:11.864Z,10.50
2022-10-01T21:42:57.584Z,12.03
2022-10-01T21:46:01.788Z,12.60
2022-10-01T21:48:51.731Z,12.97
2022-10-01T21:51:32.852Z,16.30
2022-10-01T21:54:23.628Z,19.33
2022-10-01T21:57:03.794Z,16.73
2022-10-01T21:59:48.884Z,13.17
2022-10-01T22:02:42.830Z,12.50
2022-10-01T22:05:22.570Z,14.50
2022-10-01T22:08:20.033Z,17.87
2022-10-01T22:10:50.455Z,11.93
2022-10-01T22:13:22.481Z,13.50
2022-10-01T22:15:52.908Z,14.60
2022-10-01T22:18:49.059Z,12.57
2022-10-01T22:21:57.470Z,13.43
2022-10-01T22:24:31.863Z,15.70
2022-10-01T22:27:12.584Z,13.33
2022-10-01T22:29:44.565Z,17.83
2022-10-01T22:32:16.576Z,13.30
2022-10-01T22:34:54.296Z,17.23
2022-10-01T22:37:27.779Z,12.80
2022-10-01T22:40:10.086Z,13.57
2022-10-01T22:42:42.964Z,12.40
2022-10-01T22:45:14.691Z,18.87
2022-10-01T22:48:09.360Z,12.23
2022-10-01T22:51:04.108Z,13.50
2022-10-01T22:53:39.993Z,17.33
2022-10-01T22:56:06.888Z,11.83
2022-10-01T22:58:36.334Z,10.93
2022-10-01T23:01:23.272Z,13.53
2022-10-01T23:03:52.861Z,14.57
2022-10-01T23:06:45.021Z,12.63
2022-10-01T23:09:35.223Z,15.37
2022-10-01T23:12:15.250Z,13.10
2022-10-01T23:14:59.961Z,16.97
2022-10-01T23:17:50.640Z,14.33
2022-10-01T23:20:43.785Z,12.40
2022-10-01T23:23:27.384Z,10.87
2022-10-01T23:26:18.477Z,13.63
2022-10-01T23:29:01.224Z,14.03
2022-10-01T23:31:59.527Z,15.43
2022-10-01T23:34:29.140Z,15.70
2022-10-01T23:37:35.456Z,13.17
2022-10-01T23:40:08.813Z,18.20
2022-10-01T23:42:55.290Z,14.33
2022-10-01T23:45:43.291Z,13.53
2022-10-01T23:48:17.323Z,15.37
2022-10-01T23:50:59.550Z,18.33
2022-10-01T23:53:42.796Z,12.17
2022-10-01T23:56:36.239Z,13.37
2022-10-01T23:59:15.236Z,15.87
